Terminal Aerodrome Forecast
Issued by NWS

Home | Current Version | Previous Version | Text Only | Print | Product List | Glossary On
Versions: 1 2 3 4 5 6 7 8 9 10 11 12 13 14 15 16 17 18 19 20
000
FTUS46 KHNX 012320
TAFFAT
TAF
KFAT 012320Z 0200/0224 VRB03KT 5SM HZ SCT150
     FM020900 VRB03KT 3SM HZ SKC
     FM021500 VRB03KT 1SM BR OVC001
     FM021800 VRB03KT 4SM HZ SKC=

USA.gov is the U.S. government's official web portal to all federal, state and local government web resources and services.